Latest Weather Observations for Maryborough

IDQ60801

Issued at 10:12 pm EST Friday 14 December 2018 (issued every 10 minutes, with the page automatically refreshed every 10 minutes)

About weather observations | Map of weather stations | Latest weather observations for QLD | Other Formats
Station Details ID: 040126 Name: MARYBOROUGH Lat: -25.51 Lon: 152.72 Height: 8.98 m
Data from the previous 72 hours. | See also: Recent months at Maryborough
Date/Time
EST
Temp
°C
App
Temp
°C
Dew
Point
°C
Rel
Hum
%
Delta-T
°C
Wind Press
QNH
hPa
Press
MSL
hPa
Rain since
9am
mm
Dir  Spd
km/h
Gust
km/h
Spd
kts
Gust
kts
14/10:07pm 24.2 27.9 23.9 98 0.2 N 11 22 6 12 1006.4 - 75.8
14/10:00pm 24.2 27.6 24.0 99 0.1 NNE 13 22 7 12 1006.2 - 75.8
14/09:56pm 24.2 27.6 24.0 99 0.1 NNE 13 20 7 11 1006.1 - 75.6
14/09:51pm 24.1 27.4 23.9 99 0.1 NNE 13 20 7 11 1006.0 - 75.6
14/09:30pm 24.2 28.3 23.9 98 0.2 NNE 9 15 5 8 1006.5 - 75.6
14/09:27pm 24.2 28.3 23.9 98 0.2 NE 9 15 5 8 1006.6 - 75.6
14/09:14pm 24.1 28.0 23.6 97 0.3 NNE 9 17 5 9 1006.3 - 75.6
14/09:00pm 24.2 28.2 23.7 97 0.3 NNE 9 13 5 7 1006.0 1005.9 75.6
14/08:48pm 24.3 27.6 23.8 97 0.3 NE 13 20 7 11 1005.7 - 75.6
14/08:38pm 24.3 28.3 23.8 97 0.3 NE 9 15 5 8 1005.7 - 75.6
14/08:30pm 24.3 27.9 23.8 97 0.3 NNE 11 19 6 10 1006.0 - 75.6
14/08:21pm 24.4 28.4 23.7 96 0.5 NE 9 17 5 9 1006.0 - 75.6
14/08:00pm 24.3 28.2 23.6 96 0.5 ENE 9 15 5 8 1005.6 - 75.6
14/07:30pm 24.1 27.7 23.1 94 0.7 NE 9 17 5 9 1005.5 - 75.6
14/07:00pm 24.2 27.7 22.8 92 0.9 NE 9 19 5 10 1005.6 - 75.6
14/06:47pm 24.1 27.3 23.1 94 0.7 NNE 11 20 6 11 1005.4 - 75.6
14/06:41pm 24.2 27.5 23.2 94 0.7 NNE 11 20 6 11 1005.5 - 75.4
14/06:31pm 24.3 27.5 23.1 93 0.8 NNE 11 19 6 10 1005.2 - 75.4
14/06:30pm 24.3 27.5 23.1 93 0.8 NNE 11 19 6 10 1005.2 - 75.4
14/06:13pm 24.7 27.0 22.8 89 1.3 NNE 15 24 8 13 1005.0 - 75.0
14/06:00pm 25.5 28.6 22.8 85 1.8 NNE 11 19 6 10 1004.8 1004.7 74.6
14/05:49pm 25.5 28.2 22.8 85 1.8 N 13 24 7 13 1004.8 - 74.6
14/05:30pm 25.5 27.9 23.0 86 1.7 NNE 15 20 8 11 1004.6 - 74.6
14/05:00pm 25.4 27.4 22.9 86 1.7 NNE 17 28 9 15 1004.3 - 74.6
14/04:30pm 25.8 28.2 22.9 84 2.0 NNE 15 28 8 15 1003.8 - 74.6
14/04:11pm 26.1 28.8 23.4 85 1.8 NNE 15 24 8 13 1003.6 - 74.6
14/04:00pm 25.3 27.8 23.2 88 1.4 NNE 15 26 8 14 1003.7 - 74.6
14/03:34pm 25.3 28.0 23.5 90 1.2 NNE 15 22 8 12 1003.7 - 74.6
14/03:31pm 25.3 28.1 23.7 91 1.1 NNE 15 28 8 15 1003.7 - 74.6
14/03:30pm 25.3 28.1 23.7 91 1.1 NNE 15 28 8 15 1003.7 - 74.6
14/03:17pm 25.2 28.6 23.4 90 1.2 NNE 11 20 6 11 1003.8 - 74.6
14/03:11pm 25.2 28.2 23.4 90 1.2 NNE 13 20 7 11 1004.0 - 74.4
14/03:00pm 25.3 28.3 23.4 89 1.3 NNE 13 22 7 12 1004.0 1003.9 74.4
14/02:47pm 25.7 29.0 23.2 86 1.7 NNE 11 22 6 12 1003.9 - 72.6
14/02:41pm 26.2 29.1 23.1 83 2.1 NNE 13 22 7 12 1003.9 - 71.6
14/02:30pm 26.6 29.5 23.1 81 2.4 NNE 13 22 7 12 1004.0 - 71.6
14/02:17pm 27.2 30.8 24.3 84 2.0 NNE 13 20 7 11 1004.0 - 71.6
14/02:00pm 26.0 28.9 23.1 84 2.0 NNE 13 28 7 15 1004.3 - 71.6
14/01:49pm 26.1 28.8 23.4 85 1.8 NNE 15 26 8 14 1004.2 - 71.6
14/01:30pm 25.7 27.7 23.0 85 1.8 N 17 28 9 15 1004.6 - 71.6
14/01:00pm 25.7 27.7 23.0 85 1.8 NNE 17 28 9 15 1004.7 - 71.6
14/12:37pm 25.8 28.7 23.8 89 1.4 N 15 28 8 15 1005.0 - 71.6
14/12:34pm 25.7 28.3 23.9 90 1.2 NNE 17 28 9 15 1005.0 - 71.6
14/12:30pm 25.5 28.6 24.1 92 1.0 NNE 15 28 8 15 1005.1 - 71.6
14/12:26pm 25.2 28.2 24.0 93 0.8 NNE 15 28 8 15 1005.2 - 71.6
14/12:02pm 25.2 28.8 24.3 95 0.6 N 13 19 7 10 1005.2 - 70.6
14/12:00pm 25.1 28.5 24.1 94 0.7 N 13 20 7 11 1005.2 1005.1 70.6
14/11:58am 25.2 28.8 24.3 95 0.6 N 13 20 7 11 1005.3 - 70.6
14/11:38am 25.3 28.6 23.9 92 1.0 N 13 20 7 11 1005.3 - 70.2
14/11:30am 25.8 29.7 24.8 94 0.7 N 13 19 7 10 1005.3 - 69.0
14/11:00am 24.6 30.3 24.4 99 0.1 E 2 6 1 3 1005.8 - 69.0
14/10:50am 24.5 30.5 24.3 99 0.1 CALM 0 6 0 3 1005.7 - 69.0
14/10:30am 24.1 27.4 23.9 99 0.1 SW 13 20 7 11 1005.5 - 68.0
14/10:00am 24.1 26.1 23.9 99 0.1 WNW 20 24 11 13 1006.0 - 49.6
14/09:30am 24.0 24.7 23.7 98 0.2 S 26 46 14 25 1005.3 - 26.8
14/09:08am 24.5 29.1 23.8 96 0.5 WNW 6 11 3 6 1006.4 - 9.0
14/09:00am 24.5 28.4 23.6 95 0.6 SW 9 19 5 10 1006.0 1005.9 15.8
14/08:50am 24.8 28.7 24.3 97 0.3 SW 11 15 6 8 1005.9 - 9.6
14/08:32am 24.9 30.1 24.2 96 0.5 NNW 4 7 2 4 1006.2 - 8.4
14/08:30am 24.9 30.1 24.2 96 0.5 NNW 4 6 2 3 1006.1 - 8.2
14/08:19am 24.8 29.4 24.1 96 0.5 N 7 13 4 7 1006.3 - 8.2
14/08:00am 24.7 28.7 23.8 95 0.6 N 9 15 5 8 1006.3 - 6.2
14/07:50am 24.8 28.9 23.9 95 0.6 N 9 15 5 8 1006.3 - 5.2
14/07:34am 25.0 29.8 24.1 95 0.6 NNE 6 13 3 7 1006.4 - 3.2
14/07:30am 25.0 30.1 24.1 95 0.6 NNE 4 7 2 4 1006.2 - 2.6
14/07:17am 24.8 29.5 23.9 95 0.6 N 6 7 3 4 1006.3 - 2.4
14/07:00am 24.6 30.1 23.4 93 0.8 CALM 0 0 0 0 1006.3 - 2.2
14/06:57am 24.5 29.9 23.3 93 0.8 CALM 0 0 0 0 1006.3 - 2.0
14/06:30am 24.3 29.4 23.3 94 0.7 N 2 6 1 3 1006.0 - 1.4
14/06:00am 23.9 29.1 22.9 94 0.7 CALM 0 0 0 0 1005.9 1005.8 1.2
14/05:30am 23.7 28.3 22.5 93 0.8 NNE 2 6 1 3 1006.0 - 1.2
14/05:00am 23.7 27.6 22.5 93 0.8 NNE 6 9 3 5 1005.9 - 1.2
14/04:30am 23.6 27.3 22.6 94 0.7 NE 7 11 4 6 1005.4 - 1.2
14/04:00am 23.6 27.5 22.6 94 0.7 NE 6 7 3 4 1005.5 - 1.2
14/03:30am 23.5 27.4 22.5 94 0.7 NNE 6 9 3 5 1005.4 - 1.2
14/03:00am 23.6 27.4 22.4 93 0.8 N 6 7 3 4 1005.4 1005.3 1.2
14/02:45am 23.6 26.8 22.4 93 0.8 N 9 13 5 7 1005.4 - 1.2
14/02:30am 23.7 25.6 22.1 91 1.1 N 15 20 8 11 1005.1 - 1.0
14/02:27am 23.8 25.7 22.1 90 1.1 N 15 20 8 11 1005.1 - 0.8
14/02:00am 24.4 27.3 21.7 85 1.8 N 9 13 5 7 1005.2 - 0.0
14/01:30am 24.9 27.7 21.6 82 2.2 N 9 19 5 10 1005.5 - 0.0
14/01:00am 24.5 27.6 21.4 83 2.0 NNW 7 13 4 7 1005.5 - 0.0
14/12:30am 24.4 27.1 21.3 83 2.0 N 9 13 5 7 1005.4 - 0.0
14/12:00am 24.2 26.9 20.7 81 2.3 N 7 11 4 6 1006.1 1006.0 0.0
 
Date/Time
EST
Temp
°C
App
Temp
°C
Dew
Point
°C
Rel
Hum
%
Delta-T
°C
Wind Press
QNH
hPa
Press
MSL
hPa
Rain since
9am
mm
Dir  Spd
km/h
Gust
km/h
Spd
kts
Gust
kts
13/11:30pm 24.0 26.3 20.7 82 2.2 N 9 13 5 7 1006.8 - 0.0
13/11:00pm 23.7 26.3 20.4 82 2.1 N 7 13 4 7 1006.9 - 0.0
13/10:30pm 23.4 25.9 20.3 83 2.0 N 7 15 4 8 1006.7 - 0.0
13/10:00pm 23.0 25.4 20.0 83 1.9 N 7 11 4 6 1007.2 - 0.0
13/09:30pm 23.0 25.3 19.8 82 2.1 N 7 11 4 6 1007.4 - 0.0
13/09:00pm 22.9 25.1 19.5 81 2.2 NNE 7 11 4 6 1007.5 1007.4 0.0
13/08:30pm 23.4 25.6 19.5 79 2.5 NNW 7 9 4 5 1007.7 - 0.0
13/08:00pm 24.0 25.5 19.7 77 2.8 N 11 17 6 9 1007.4 - 0.0
13/07:30pm 24.1 25.9 19.6 76 2.9 N 9 17 5 9 1007.4 - 0.0
13/07:00pm 24.3 25.8 18.9 72 3.4 N 9 13 5 7 1007.6 - 0.0
13/06:30pm 24.7 25.3 18.6 69 3.9 N 13 19 7 10 1007.2 - 0.0
13/06:00pm 25.1 24.9 18.5 67 4.2 N 17 28 9 15 1007.0 1006.9 0.0
13/05:30pm 25.5 25.4 18.7 66 4.3 N 17 26 9 14 1005.8 - 0.0
13/05:00pm 25.8 25.6 18.5 64 4.6 N 17 24 9 13 1005.5 - 0.0
13/04:30pm 26.2 25.9 18.3 61 5.0 N 17 28 9 15 1005.7 - 0.0
13/04:00pm 26.8 27.0 19.4 64 4.8 N 17 28 9 15 1005.4 - 0.0
13/03:30pm 27.4 27.8 18.9 59 5.5 N 15 26 8 14 1005.9 - 0.0
13/03:00pm 27.7 27.3 18.1 56 6.1 N 17 28 9 15 1006.1 1006.0 0.0
13/02:30pm 27.8 26.7 17.3 52 6.6 N 19 30 10 16 1006.6 - 0.0
13/02:00pm 28.8 28.3 17.7 51 7.0 NNE 17 32 9 17 1007.0 - 0.0
13/01:30pm 29.1 29.3 17.6 50 7.3 N 13 20 7 11 1007.6 - 0.0
13/01:00pm 29.0 28.0 17.5 49 7.3 N 19 30 10 16 1008.2 - 0.0
13/12:30pm 28.5 27.8 16.4 48 7.5 N 15 24 8 13 1008.4 - 0.0
13/12:00pm 29.3 28.5 16.1 44 8.2 N 15 24 8 13 1008.9 1008.8 0.0
13/11:30am 28.6 28.4 16.8 48 7.4 N 13 22 7 12 1009.3 - 0.0
13/11:00am 29.0 28.7 16.5 46 7.8 N 13 24 7 13 1009.3 - 0.0
13/10:30am 28.9 29.1 17.7 50 7.1 N 13 24 7 13 1009.7 - 0.0
13/10:00am 26.8 27.6 18.1 59 5.5 N 11 17 6 9 1010.3 - 0.0
13/09:30am 26.3 28.3 19.2 65 4.6 N 7 13 4 7 1010.7 - 0.0
13/09:00am 26.2 27.7 18.8 63 4.7 NNE 9 13 5 7 1010.6 1010.5 0.0
13/08:30am 25.9 27.7 18.8 65 4.5 NNE 7 11 4 6 1010.7 - 0.0
13/08:00am 24.8 26.9 19.4 72 3.5 E 7 13 4 7 1010.7 - 0.0
13/07:30am 24.3 25.9 19.1 73 3.3 NE 9 13 5 7 1010.6 - 0.0
13/07:00am 24.0 26.5 19.9 78 2.6 E 6 9 3 5 1010.5 - 0.0
13/06:30am 22.1 24.2 19.3 84 1.8 E 7 9 4 5 1010.0 - 0.0
13/06:00am 20.5 24.4 20.3 99 0.1 CALM 0 0 0 0 1010.0 1009.9 0.0
13/05:30am 18.1 20.7 17.6 97 0.3 CALM 0 0 0 0 1010.2 - 0.0
13/05:11am 17.2 19.4 16.6 96 0.4 CALM 0 0 0 0 1010.1 - 0.0
13/05:00am 17.1 18.9 16.5 96 0.4 E 2 6 1 3 1009.8 - 0.0
13/04:30am 17.5 18.7 16.9 96 0.4 E 6 7 3 4 1009.8 - 0.0
13/04:17am 17.5 18.7 16.9 96 0.4 E 6 7 3 4 1009.8 - 0.0
13/04:06am 17.5 18.5 16.9 96 0.4 E 7 7 4 4 1009.8 - 0.0
13/04:00am 17.4 19.3 16.6 95 0.5 E 2 7 1 4 1009.8 - 0.0
13/03:43am 17.7 20.1 17.1 96 0.4 CALM 0 0 0 0 1009.9 - 0.0
13/03:30am 17.8 20.3 17.2 96 0.4 CALM 0 0 0 0 1010.0 - 0.0
13/03:15am 17.8 20.3 17.2 96 0.4 CALM 0 0 0 0 1010.0 - 0.0
13/03:00am 18.0 20.6 17.4 96 0.4 CALM 0 0 0 0 1010.0 1009.9 0.0
13/02:39am 18.0 20.6 17.4 96 0.4 CALM 0 0 0 0 1010.2 - 0.0
13/02:30am 18.1 20.6 17.3 95 0.5 CALM 0 0 0 0 1010.3 - 0.0
13/02:25am 17.9 20.3 16.9 94 0.6 CALM 0 0 0 0 1010.2 - 0.0
13/02:00am 18.0 20.4 17.0 94 0.6 CALM 0 0 0 0 1010.2 - 0.0
13/01:33am 17.9 20.1 16.6 92 0.8 CALM 0 0 0 0 1010.4 - 0.0
13/01:30am 18.0 20.4 16.9 93 0.7 CALM 0 0 0 0 1010.4 - 0.0
13/01:00am 18.5 21.0 17.2 92 0.8 CALM 0 0 0 0 1011.1 - 0.0
13/12:30am 18.6 21.0 16.9 90 1.0 CALM 0 0 0 0 1011.9 - 0.0
13/12:00am 18.8 21.2 16.9 89 1.1 CALM 0 0 0 0 1012.0 1011.9 0.0
 
Date/Time
EST
Temp
°C
App
Temp
°C
Dew
Point
°C
Rel
Hum
%
Delta-T
°C
Wind Press
QNH
hPa
Press
MSL
hPa
Rain since
9am
mm
Dir  Spd
km/h
Gust
km/h
Spd
kts
Gust
kts
12/11:30pm 19.4 22.1 17.7 90 1.0 CALM 0 0 0 0 1012.4 - 0.0
12/11:00pm 19.3 21.9 17.6 90 1.0 CALM 0 0 0 0 1012.8 - 0.0
12/10:30pm 19.1 21.5 17.1 88 1.2 CALM 0 0 0 0 1012.9 - 0.0
12/10:00pm 19.2 20.4 16.8 86 1.4 E 6 7 3 4 1012.7 - 0.0
12/09:30pm 19.5 20.7 16.9 85 1.6 E 6 7 3 4 1012.9 - 0.0
12/09:00pm 19.9 21.0 16.5 81 2.0 E 6 7 3 4 1012.9 1012.8 0.0
12/08:30pm 20.8 21.9 16.6 77 2.5 E 6 7 3 4 1012.7 - 0.0
12/08:00pm 21.8 22.9 16.7 73 3.1 E 6 7 3 4 1012.6 - 0.0
12/07:30pm 22.7 23.9 16.9 70 3.6 E 6 11 3 6 1012.6 - 0.0
12/07:00pm 23.2 24.1 16.7 67 4.0 E 7 11 4 6 1012.1 - 0.0
12/06:30pm 24.0 24.5 16.5 63 4.6 E 9 13 5 7 1011.9 - 0.0
12/06:00pm 25.4 25.8 16.3 57 5.6 E 9 15 5 8 1011.6 1011.5 0.0
12/05:30pm 26.2 25.8 16.2 54 6.1 E 13 19 7 10 1011.3 - 0.0
12/05:00pm 26.9 26.2 16.5 53 6.4 ENE 15 22 8 12 1010.7 - 0.0
12/04:30pm 27.6 26.8 16.2 49 7.0 ENE 15 26 8 14 1010.2 - 0.0
12/04:00pm 28.3 27.7 16.6 49 7.3 E 15 22 8 12 1010.1 - 0.0
12/03:30pm 28.5 27.7 16.1 47 7.7 E 15 24 8 13 1010.3 - 0.0
12/03:00pm 29.2 28.8 17.1 48 7.6 E 15 24 8 13 1010.4 1010.3 0.0
12/02:30pm 29.8 29.5 17.3 47 7.9 ESE 15 24 8 13 1010.8 - 0.0
12/02:00pm 29.7 29.4 16.5 45 8.2 ENE 13 24 7 13 1011.1 - 0.0
12/01:30pm 29.5 29.3 16.7 46 8.0 E 13 20 7 11 1011.4 - 0.0
12/01:00pm 29.5 29.4 17.0 47 7.9 ESE 13 17 7 9 1011.9 - 0.0
12/12:30pm 29.2 28.8 17.1 48 7.6 SSE 15 20 8 11 1012.0 - 0.0
12/12:00pm 28.8 28.9 16.4 47 7.7 ESE 11 24 6 13 1012.3 1012.2 0.0
12/11:30am 29.0 29.3 17.8 50 7.1 ENE 13 19 7 10 1012.7 - 0.0
12/11:00am 29.0 28.9 16.9 48 7.6 ESE 13 24 7 13 1013.0 - 0.0
12/10:30am 28.6 28.7 17.5 51 7.0 E 13 19 7 10 1013.2 - 0.0
12/10:00am 28.5 28.8 16.1 47 7.7 ENE 9 15 5 8 1013.6 - 0.0
12/09:30am 27.4 27.7 17.0 53 6.5 E 11 15 6 8 1013.9 - 0.0
12/09:00am 26.5 27.5 17.8 58 5.5 NNE 9 17 5 9 1014.1 1014.0 0.0
12/08:30am 26.0 28.1 19.4 67 4.3 N 7 11 4 6 1014.2 - 0.0
12/08:00am 24.6 26.5 19.0 71 3.6 NE 7 13 4 7 1014.3 - 0.0
12/07:30am 24.2 26.0 19.5 75 3.0 SE 9 11 5 6 1014.3 - 0.0
12/07:00am 22.5 24.7 19.5 83 1.9 S 7 11 4 6 1014.3 - 0.0
12/06:30am 21.3 23.9 20.5 95 0.5 S 7 9 4 5 1013.8 - 0.0
12/06:00am 19.8 22.2 19.6 99 0.1 SSW 6 9 3 5 1013.9 1013.8 0.0
12/05:30am 19.0 20.8 18.7 98 0.2 S 7 9 4 5 1013.7 - 0.0
12/05:03am 18.5 21.3 18.0 97 0.3 CALM 0 0 0 0 1013.4 - 0.0
12/05:00am 18.7 21.6 18.2 97 0.3 CALM 0 0 0 0 1013.4 - 0.0
12/04:44am 18.1 19.6 17.6 97 0.3 S 6 7 3 4 1013.1 - 0.0
12/04:30am 18.1 19.4 17.6 97 0.3 SSW 7 9 4 5 1013.1 - 0.0
12/04:00am 18.1 19.5 17.3 95 0.5 SSW 6 7 3 4 1012.9 - 0.0
12/03:53am 17.9 19.2 17.1 95 0.5 SSW 6 7 3 4 1012.9 - 0.0
12/03:32am 18.0 20.5 17.2 95 0.5 CALM 0 0 0 0 1013.0 - 0.0
12/03:30am 18.1 20.7 17.5 96 0.4 CALM 0 0 0 0 1013.0 - 0.0
12/03:26am 18.4 21.1 17.8 96 0.4 CALM 0 0 0 0 1013.0 - 0.0
12/03:00am 18.4 19.8 17.4 94 0.6 SSW 6 7 3 4 1013.1 1013.0 0.0
12/02:46am 18.3 19.7 17.3 94 0.6 SSW 6 7 3 4 1013.2 - 0.0
12/02:37am 18.5 20.0 17.5 94 0.6 SSW 6 6 3 3 1013.3 - 0.0
12/02:30am 18.4 19.8 17.4 94 0.6 SSW 6 6 3 3 1013.3 - 0.0
12/02:10am 18.4 20.9 17.2 93 0.7 CALM 0 0 0 0 1013.5 - 0.0
12/02:00am 18.6 20.5 17.6 94 0.6 SSW 4 7 2 4 1013.6 - 0.0
12/01:53am 18.6 20.8 17.4 93 0.7 S 2 7 1 4 1013.7 - 0.0
12/01:35am 18.8 21.4 17.6 93 0.7 CALM 0 0 0 0 1013.9 - 0.0
12/01:30am 18.8 21.4 17.6 93 0.7 CALM 0 0 0 0 1013.9 - 0.0
12/01:00am 19.3 21.0 18.5 95 0.5 S 7 9 4 5 1014.2 - 0.0
12/12:30am 19.3 20.9 18.3 94 0.6 S 7 9 4 5 1014.6 - 0.0
12/12:00am 19.3 20.8 18.1 93 0.7 S 7 11 4 6 1014.9 1014.8 0.0
 
Date/Time
EST
Temp
°C
App
Temp
°C
Dew
Point
°C
Rel
Hum
%
Delta-T
°C
Wind Press
QNH
hPa
Press
MSL
hPa
Rain since
9am
mm
Dir  Spd
km/h
Gust
km/h
Spd
kts
Gust
kts
11/11:30pm 19.7 21.4 18.4 92 0.8 S 7 9 4 5 1015.2 - 0.0
11/11:00pm 20.1 22.0 18.6 91 0.9 S 6 7 3 4 1015.5 - 0.0
11/10:30pm 20.3 21.8 18.8 91 0.9 S 9 11 5 6 1015.9 - 0.0

Other Formats:

Comma delimited format used in spreadsheet applications
http://www.bom.gov.au/fwo/IDQ60801/IDQ60801.94567.axf

JavaScript Object Notation format (JSON) in row-major order
http://www.bom.gov.au/fwo/IDQ60801/IDQ60801.94567.json